Estación meteorológica de Montseny - Vallcàrquera (Vallès Oriental, Parc Natural del Montseny)

Consulta los datos en tiempo real de la estación meteorológica de Montseny - Vallcàrquera





Hora UTC 05:45
Temperatura 7.0 ºC
Humedad 90.3 %
Pluja 0.0 mm
Velocidad viento 0.7 km/h
Dirección viento NNE
Radiación solar 49.3 W/m²

Datos diarios 2026-05-08



Hora UTC (invierno +1h; verano +2h)
Temperatura (ºC) Humedad (%) Velocidad viento (km/h) Precipitación (mm) Radiación solar (W/m²)
Hora UTC Aire Humedad Vel. Dir. Vel. Max Dir. Intent. máx 5 min. Rad. Sol.
00:05 8.4 85.9 1.1 NNE 1.1 NE 0.0 0.0
00:10 8.3 86.5 1.0 NE 2.8 NE 0.0 0.0
00:15 8.4 86.2 0.4 NE 1.8 NE 0.0 0.0
00:20 8.5 86.9 0.7 NNE 1.8 NNE 0.0 0.0
00:25 8.5 87.9 1.8 NE 2.8 ENE 0.0 0.0
00:30 8.5 88.5 2.3 ENE 3.9 ENE 0.0 0.0
00:35 8.6 88.1 2.4 ENE 3.2 NE 0.0 0.0
00:40 8.7 87.9 0.8 NNE 2.1 ENE 0.0 0.0
00:45 8.8 87.2 0.8 NNE 1.8 NNE 0.0 0.0
00:50 8.9 86.6 1.5 NE 3.2 NE 0.0 0.0
00:55 9.1 85.7 2.7 NE 3.9 ENE 0.0 0.0
01:00 9.2 84.8 1.1 NNE 2.8 NE 0.0 0.0
01:05 9.1 86.3 3.1 ENE 5.6 ENE 0.0 0.0
01:10 9.3 85.3 2.2 NE 4.6 ENE 0.0 0.0
01:15 9.3 85.4 0.9 N 2.1 N 0.0 0.0
01:20 9.2 86.1 0.9 N 2.1 N 0.0 0.0
01:25 9.2 85.7 1.1 NNE 2.1 N 0.0 0.0
01:30 9.2 85.8 0.9 N 2.1 NNW 0.0 0.0
01:35 9.2 85.9 1.2 NNE 2.5 NE 0.0 0.0
01:40 9.2 86.3 0.8 NNE 2.1 NE 0.0 0.0
01:45 9.0 87.9 2.6 ENE 5.3 ENE 0.0 0.0
01:50 8.9 88.3 2.7 NE 4.6 ENE 0.0 0.0
01:55 9.0 87.5 2.6 NE 4.2 ENE 0.0 0.0
02:00 9.0 87.6 2.0 N 3.5 NE 0.0 0.0
02:05 8.9 87.6 0.8 NNE 3.2 NE 0.0 0.0
02:10 8.8 88.4 1.9 NE 3.9 ENE 0.0 0.0
02:15 8.8 88.1 3.1 ENE 5.3 ENE 0.0 0.0
02:20 8.7 88.3 1.0 NE 2.8 NE 0.0 0.0
02:25 8.7 88.5 1.5 NE 3.2 ENE 0.0 0.0
02:30 8.7 87.8 1.7 NE 3.9 ENE 0.0 0.0
02:35 8.6 88.1 1.1 NNE 2.8 ENE 0.0 0.0
02:40 8.5 88.0 1.0 NE 2.8 ENE 0.0 0.0
02:45 8.5 88.2 2.0 NE 4.2 N 0.0 0.0
02:50 8.4 87.6 1.2 NE 3.9 ENE 0.0 0.0
02:55 8.1 88.5 0.9 N 2.8 N 0.0 0.0
03:00 8.0 89.1 1.5 NE 3.2 N 0.0 0.0
03:05 8.0 88.7 1.0 NNE 2.5 N 0.0 0.0
03:10 7.9 89.0 1.6 NE 2.8 NE 0.0 0.0
03:15 7.8 88.4 2.7 NE 4.9 ENE 0.0 0.0
03:20 7.8 87.7 2.4 NE 3.9 ENE 0.0 0.0
03:25 7.7 87.8 1.9 NE 4.2 NE 0.0 0.0
03:30 7.7 87.3 1.6 NE 4.2 NE 0.0 0.0
03:35 7.5 88.9 0.7 NNE 2.1 N 0.0 0.0
03:40 7.4 90.0 1.8 N 2.8 N 0.0 0.0
03:45 7.2 90.5 0.3 NNE 2.1 NE 0.0 0.0
03:50 7.1 91.3 1.4 NNE 2.5 NE 0.0 0.0
03:55 7.3 89.4 2.7 NE 4.9 NE 0.0 0.0
04:00 7.1 89.6 0.9 NNE 2.1 N 0.0 0.0
04:05 7.0 91.3 1.3 NNE 2.5 NE 0.0 0.0
04:10 6.9 91.1 1.8 NNE 4.2 NNE 0.0 0.0
04:15 6.9 90.2 2.0 NE 3.5 ENE 0.0 0.0
04:20 6.7 90.8 2.3 NE 3.9 ENE 0.0 0.0
04:25 6.8 90.5 1.9 NE 3.9 ENE 0.0 0.0
04:30 6.8 89.9 1.4 NE 3.2 NE 0.0 0.0
04:35 6.9 89.4 2.2 NE 4.6 ENE 0.0 0.0
04:40 6.8 89.5 2.5 NE 4.6 ENE 0.0 0.1
04:45 6.6 90.0 3.1 ENE 5.3 ENE 0.0 1.3
04:50 6.6 89.8 2.4 NE 4.9 ENE 0.0 2.9
04:55 6.7 89.6 1.8 NE 3.9 E 0.0 5.4
05:00 6.8 88.6 2.4 NE 4.6 ENE 0.0 9.2
05:05 6.8 88.6 1.2 NE 3.2 ENE 0.0 13.7
05:10 6.8 89.0 1.4 NNE 2.8 N 0.0 17.4
05:15 6.8 89.2 1.2 NNE 2.5 NNE 0.0 18.5
05:20 6.9 89.5 1.3 NNE 2.1 N 0.0 17.7
05:25 6.8 90.1 1.5 NE 3.2 ENE 0.0 19.4
05:30 6.7 90.7 1.8 NE 3.2 NE 0.0 22.2
05:35 6.8 90.7 1.8 NE 3.5 ENE 0.0 26.1
05:40 6.9 89.9 1.6 NNE 3.2 NE 0.0 33.9
05:45 7.0 90.3 0.7 NNE 2.8 ENE 0.0 49.3
Máxima 9.3 91.3 3.1 ENE 5.6 ENE 0.0 49.3
Mínima 6.6 84.8
Total 0.0